Home > Products > Valid Products > MTR

000
SAUS45 KTWC 312352
MTRSAD
METAR KSAD 312351Z AUTO 29015G24KT 10SM CLR 30/M03 A2986 RMK AO2 PK
WND 30027/2334 SLP063 T03001028 10317 20261 56024





000
SAUS45 KTWC 312252
MTRSAD
METAR KSAD 312251Z AUTO 29012KT 10SM CLR 31/M02 A2987 RMK AO2 SLP066
T03061022





000
SAUS45 KTWC 312252
MTRSAD
METAR KSAD 312251Z AUTO 29012KT 10SM CLR 31/M02 A2987 RMK AO2 SLP066
T03061022





000
SAUS45 KTWC 312152
MTRSAD
METAR KSAD 312151Z AUTO 31009G19KT 10SM CLR 32/M04 A2989 RMK AO2
SLP069 T03171044





000
SAUS45 KTWC 312053
MTRSAD
METAR KSAD 312051Z AUTO 27010G16KT 10SM CLR 31/M03 A2994 RMK AO2
SLP082 T03111033 58031





000
SAUS45 KTWC 312053
MTRSAD
METAR KSAD 312051Z AUTO 27010G16KT 10SM CLR 31/M03 A2994 RMK AO2
SLP082 T03111033 58031





000
SAUS45 KTWC 311952
MTRSAD
METAR KSAD 311951Z AUTO 29010G16KT 250V320 10SM CLR 30/M03 A2997 RMK
AO2 SLP097 T03001033





000
SAUS45 KTWC 311952
MTRSAD
METAR KSAD 311951Z AUTO 29010G16KT 250V320 10SM CLR 30/M03 A2997 RMK
AO2 SLP097 T03001033





000
SAUS45 KTWC 311852
MTRSAD
METAR KSAD 311851Z AUTO 29008KT 240V320 10SM CLR 29/M04 A3001 RMK
AO2 SLP112 T02891039





000
SAUS45 KTWC 311753
MTRSAD
METAR KSAD 311751Z AUTO 32003KT 10SM CLR 27/M02 A3004 RMK AO2 SLP123
T02671022 10267 20122 58005





000
SAUS45 KTWC 311753
MTRSAD
METAR KSAD 311751Z AUTO 32003KT 10SM CLR 27/M02 A3004 RMK AO2 SLP123
T02671022 10267 20122 58005





000
SAUS45 KTWC 311652
MTRSAD
METAR KSAD 311651Z AUTO 00000KT 10SM CLR 23/M02 A3005 RMK AO2 SLP133
T02331022





000
SAUS45 KTWC 311652
MTRSAD
METAR KSAD 311651Z AUTO 00000KT 10SM CLR 23/M02 A3005 RMK AO2 SLP133
T02331022





000
SAUS45 KTWC 311552
MTRSAD
METAR KSAD 311551Z AUTO 00000KT 10SM CLR 22/M02 A3006 RMK AO2 SLP139
T02171017





000
SAUS45 KTWC 311452
MTRSAD
METAR KSAD 311451Z AUTO 25004KT 10SM CLR 19/M01 A3005 RMK AO2 SLP136
T01891006 53011





000
SAUS45 KTWC 311352
MTRSAD
METAR KSAD 311351Z AUTO 00000KT 10SM CLR 15/M01 A3003 RMK AO2 SLP133
T01501011





000
SAUS45 KTWC 311352
MTRSAD
METAR KSAD 311351Z AUTO 00000KT 10SM CLR 15/M01 A3003 RMK AO2 SLP133
T01501011





000
SAUS45 KTWC 311252
MTRSAD
METAR KSAD 311251Z AUTO 11004KT 10SM CLR 16/M02 A3002 RMK AO2 SLP123
T01611017





000
SAUS45 KTWC 311252
MTRSAD
METAR KSAD 311251Z AUTO 11004KT 10SM CLR 16/M02 A3002 RMK AO2 SLP123
T01611017





000
SAUS45 KTWC 311153
MTRSAD
METAR KSAD 311151Z AUTO 10003KT 10SM FEW120 17/M01 A3002 RMK AO2
SLP119 T01721011 10233 20172 55002





000
SAUS45 KTWC 311153
MTRSAD
METAR KSAD 311151Z AUTO 10003KT 10SM FEW120 17/M01 A3002 RMK AO2
SLP119 T01721011 10233 20172 55002





000
SAUS45 KTWC 311052
MTRSAD
METAR KSAD 311051Z AUTO 31004KT 10SM FEW120 18/M02 A3001 RMK AO2
SLP116 T01831022





000
SAUS45 KTWC 311052
MTRSAD
METAR KSAD 311051Z AUTO 31004KT 10SM FEW120 18/M02 A3001 RMK AO2
SLP116 T01831022





000
SAUS45 KTWC 310953
MTRSAD
METAR KSAD 310951Z AUTO 04006KT 10SM FEW120 21/M03 A3001 RMK AO2
SLP110 T02111033





000
SAUS45 KTWC 310852
MTRSAD
METAR KSAD 310851Z AUTO 00000KT 10SM CLR 23/M04 A3002 RMK AO2 SLP112
T02331044 55003





000
SAUS45 KTWC 310752
MTRSAD
METAR KSAD 310751Z AUTO 01011KT 10SM FEW110 22/M04 A3002 RMK AO2
SLP112 T02171039





000
SAUS45 KTWC 310652
MTRSAD
METAR KSAD 310651Z AUTO 31010KT 10SM CLR 20/M03 A3003 RMK AO2 SLP122
T02001033 403110094





000
SAUS45 KTWC 310652
MTRSAD
METAR KSAD 310651Z AUTO 31010KT 10SM CLR 20/M03 A3003 RMK AO2 SLP122
T02001033 403110094





000
SAUS45 KTWC 310553
MTRSAD
METAR KSAD 310551Z AUTO 32009KT 10SM CLR 22/M04 A3003 RMK AO2 SLP121
T02171039 10294 20206 51011





000
SAUS45 KTWC 310553
MTRSAD
METAR KSAD 310551Z AUTO 32009KT 10SM CLR 22/M04 A3003 RMK AO2 SLP121
T02171039 10294 20206 51011





000
SAUS45 KTWC 310452
MTRSAD
METAR KSAD 310451Z AUTO 33003KT 10SM CLR 22/M04 A3002 RMK AO2 SLP122
T02171039





000
SAUS45 KTWC 310353
MTRSAD
METAR KSAD 310351Z AUTO 34005KT 10SM CLR 21/M02 A3002 RMK AO2 SLP126
T02061022





000
SAUS45 KTWC 310353
MTRSAD
METAR KSAD 310351Z AUTO 34005KT 10SM CLR 21/M02 A3002 RMK AO2 SLP126
T02061022





000
SAUS45 KTWC 310253
MTRSAD
METAR KSAD 310251Z AUTO 31005KT 10SM CLR 23/M03 A3000 RMK AO2 SLP120
T02281033 53007





000
SAUS45 KTWC 310152
MTRSAD
METAR KSAD 310151Z AUTO 30004KT 10SM CLR 24/M04 A2998 RMK AO2 SLP118
T02441039





000
SAUS45 KTWC 310052
MTRSAD
METAR KSAD 310051Z AUTO 31005KT 10SM CLR 27/M04 A2998 RMK AO2 SLP113
T02671039





000
SAUS45 KTWC 310052
MTRSAD
METAR KSAD 310051Z AUTO 31005KT 10SM CLR 27/M04 A2998 RMK AO2 SLP113
T02671039





000
SAUS45 KTWC 302352
MTRSAD
METAR KSAD 302351Z AUTO 32011KT 10SM CLR 29/M06 A2998 RMK AO2 SLP112
T02941056 10311 20267 56021





000
SAUS45 KTWC 302352
MTRSAD
METAR KSAD 302351Z AUTO 32011KT 10SM CLR 29/M06 A2998 RMK AO2 SLP112
T02941056 10311 20267 56021





000
SAUS45 KTWC 302252
MTRSAD
METAR KSAD 302251Z AUTO 31008KT 10SM CLR 29/M05 A2998 RMK AO2 SLP112
T02941050





000
SAUS45 KTWC 302252
MTRSAD
METAR KSAD 302251Z AUTO 31008KT 10SM CLR 29/M05 A2998 RMK AO2 SLP112
T02941050





000
SAUS45 KTWC 302153
MTRSAD
METAR KSAD 302151Z AUTO 24005KT 10SM CLR 29/M05 A3001 RMK AO2 SLP119
T02941050





000
SAUS45 KTWC 302053
MTRSAD
METAR KSAD 302051Z AUTO 32005KT 10SM CLR 31/M06 A3004 RMK AO2 SLP131
T03061061 58030





000
SAUS45 KTWC 302053
MTRSAD
METAR KSAD 302051Z AUTO 32005KT 10SM CLR 31/M06 A3004 RMK AO2 SLP131
T03061061 58030





000
SAUS45 KTWC 301952
MTRSAD
METAR KSAD 301951Z AUTO VRB03KT 10SM CLR 30/M06 A3008 RMK AO2 SLP143
T03001061





000
SAUS45 KTWC 301852
MTRSAD
METAR KSAD 301851Z AUTO 33005KT 10SM CLR 28/M07 A3011 RMK AO2 SLP155
T02831067





000
SAUS45 KTWC 301852
MTRSAD
METAR KSAD 301851Z AUTO 33005KT 10SM CLR 28/M07 A3011 RMK AO2 SLP155
T02831067





000
SAUS45 KTWC 301752
MTRSAD
METAR KSAD 301751Z AUTO 31004KT 10SM CLR 27/M05 A3014 RMK AO2 SLP161
T02721050 10272 20100 50002





000
SAUS45 KTWC 301752
MTRSAD
METAR KSAD 301751Z AUTO 31004KT 10SM CLR 27/M05 A3014 RMK AO2 SLP161
T02721050 10272 20100 50002





000
SAUS45 KTWC 301653
MTRSAD
METAR KSAD 301651Z AUTO VRB04KT 10SM CLR 24/M05 A3015 RMK AO2 SLP168
T02391050





000
SAUS45 KTWC 301552
MTRSAD
METAR KSAD 301551Z AUTO 00000KT 10SM CLR 19/M04 A3015 RMK AO2 SLP171
T01891039





000
SAUS45 KTWC 301452
MTRSAD
METAR KSAD 301451Z AUTO 16004KT 10SM CLR 16/M03 A3013 RMK AO2 SLP168
T01611033 51014





000
SAUS45 KTWC 301452
MTRSAD
METAR KSAD 301451Z AUTO 16004KT 10SM CLR 16/M03 A3013 RMK AO2 SLP168
T01611033 51014





000
SAUS45 KTWC 301352
MTRSAD
METAR KSAD 301351Z AUTO 16003KT 10SM CLR 12/M03 A3013 RMK AO2 SLP167
T01171033





000
SAUS45 KTWC 301352
MTRSAD
METAR KSAD 301351Z AUTO 16003KT 10SM CLR 12/M03 A3013 RMK AO2 SLP167
T01171033





000
SAUS45 KTWC 301252
MTRSAD
METAR KSAD 301251Z AUTO 00000KT 10SM CLR 12/M05 A3010 RMK AO2 SLP156
T01171050





000
SAUS45 KTWC 301252
MTRSAD
METAR KSAD 301251Z AUTO 00000KT 10SM CLR 12/M05 A3010 RMK AO2 SLP156
T01171050





000
SAUS45 KTWC 301153
MTRSAD
METAR KSAD 301151Z AUTO 02003KT 10SM CLR 10/M06 A3009 RMK AO2 SLP150
T01001056 10189 20094 53005





000
SAUS45 KTWC 301153
MTRSAD
METAR KSAD 301151Z AUTO 02003KT 10SM CLR 10/M06 A3009 RMK AO2 SLP150
T01001056 10189 20094 53005





000
SAUS45 KTWC 301052
MTRSAD
METAR KSAD 301051Z AUTO 00000KT 10SM CLR 13/M06 A3008 RMK AO2 SLP144
T01281056





000
SAUS45 KTWC 301052
MTRSAD
METAR KSAD 301051Z AUTO 00000KT 10SM CLR 13/M06 A3008 RMK AO2 SLP144
T01281056





000
SAUS45 KTWC 300952
MTRSAD
METAR KSAD 300951Z AUTO 00000KT 10SM CLR 13/M07 A3007 RMK AO2 SLP140
T01331067





000
SAUS45 KTWC 300852
MTRSAD
METAR KSAD 300851Z AUTO 00000KT 10SM CLR 13/M07 A3007 RMK AO2 SLP141
T01281067 58003





000
SAUS45 KTWC 300752
MTRSAD
METAR KSAD 300751Z AUTO 15004KT 10SM CLR 14/M07 A3008 RMK AO2 SLP145
T01391067





000
SAUS45 KTWC 300752
MTRSAD
METAR KSAD 300751Z AUTO 15004KT 10SM CLR 14/M07 A3008 RMK AO2 SLP145
T01391067





000
SAUS45 KTWC 300653
MTRSAD
METAR KSAD 300651Z AUTO 00000KT 10SM CLR 16/M07 A3009 RMK AO2 SLP146
T01561072 403170067





000
SAUS45 KTWC 300653
MTRSAD
METAR KSAD 300651Z AUTO 00000KT 10SM CLR 16/M07 A3009 RMK AO2 SLP146
T01561072 403170067





000
SAUS45 KTWC 300553
MTRSAD
METAR KSAD 300551Z AUTO 33006KT 10SM CLR 19/M08 A3008 RMK AO2 SLP142
T01891083 10306 20183 51011





000
SAUS45 KTWC 300553
MTRSAD
METAR KSAD 300551Z AUTO 33006KT 10SM CLR 19/M08 A3008 RMK AO2 SLP142
T01891083 10306 20183 51011





000
SAUS45 KTWC 300452
MTRSAD
METAR KSAD 300451Z AUTO 30006KT 10SM CLR 19/M08 A3007 RMK AO2 SLP141
T01891078





000
SAUS45 KTWC 300353
MTRSAD
METAR KSAD 300351Z AUTO 34008KT 10SM CLR 22/M08 A3006 RMK AO2 SLP141
T02221078





000
SAUS45 KTWC 300353
MTRSAD
METAR KSAD 300351Z AUTO 34008KT 10SM CLR 22/M08 A3006 RMK AO2 SLP141
T02221078





000
SAUS45 KTWC 300253
MTRSAD
METAR KSAD 300251Z AUTO 33008KT 10SM CLR 23/M07 A3004 RMK AO2 SLP139
T02281067 53009





000
SAUS45 KTWC 300253
MTRSAD
METAR KSAD 300251Z AUTO 33008KT 10SM CLR 23/M07 A3004 RMK AO2 SLP139
T02281067 53009





000
SAUS45 KTWC 300152
MTRSAD
METAR KSAD 300151Z AUTO 30010KT 10SM CLR 26/M08 A3003 RMK AO2 SLP135
T02611078





000
SAUS45 KTWC 300152
MTRSAD
METAR KSAD 300151Z AUTO 30010KT 10SM CLR 26/M08 A3003 RMK AO2 SLP135
T02611078





000
SAUS45 KTWC 300052
MTRSAD
METAR KSAD 300051Z AUTO 29010KT 10SM CLR 29/M07 A3002 RMK AO2 SLP129
T02941072





000
SAUS45 KTWC 300052
MTRSAD
METAR KSAD 300051Z AUTO 29010KT 10SM CLR 29/M07 A3002 RMK AO2 SLP129
T02941072





000
SAUS45 KTWC 292353
MTRSAD
METAR KSAD 292351Z AUTO 01003KT 10SM CLR 31/M08 A3002 RMK AO2 SLP126
T03061078 10317 20261 56015





000
SAUS45 KTWC 292353
MTRSAD
METAR KSAD 292351Z AUTO 01003KT 10SM CLR 31/M08 A3002 RMK AO2 SLP126
T03061078 10317 20261 56015





000
SAUS45 KTWC 292253
MTRSAD
METAR KSAD 292251Z AUTO 03006KT 10SM CLR 31/M08 A3002 RMK AO2 SLP128
T03061078





000
SAUS45 KTWC 292253
MTRSAD
METAR KSAD 292251Z AUTO 03006KT 10SM CLR 31/M08 A3002 RMK AO2 SLP128
T03061078





000
SAUS45 KTWC 292152
MTRSAD
METAR KSAD 292151Z AUTO VRB03KT 10SM CLR 31/M08 A3004 RMK AO2 SLP132
T03111078





000
SAUS45 KTWC 292052
MTRSAD
METAR KSAD 292051Z AUTO VRB06KT 10SM CLR 31/M08 A3006 RMK AO2 SLP139
T03061083 58029





000
SAUS45 KTWC 292052
MTRSAD
METAR KSAD 292051Z AUTO VRB06KT 10SM CLR 31/M08 A3006 RMK AO2 SLP139
T03061083 58029





000
SAUS45 KTWC 291952
MTRSAD
METAR KSAD 291951Z AUTO 00000KT 10SM CLR 29/M08 A3010 RMK AO2 SLP150
T02891083





000
SAUS45 KTWC 291852
MTRSAD
METAR KSAD 291851Z AUTO 17006KT 10SM CLR 28/M08 A3013 RMK AO2 SLP160
T02831083





000
SAUS45 KTWC 291852
MTRSAD
METAR KSAD 291851Z AUTO 17006KT 10SM CLR 28/M08 A3013 RMK AO2 SLP160
T02831083





000
SAUS45 KTWC 291752
MTRSAD
METAR KSAD 291751Z AUTO 00000KT 10SM CLR 27/M07 A3016 RMK AO2 SLP170
T02671067 10267 20067 50002





000
SAUS45 KTWC 291752
MTRSAD
METAR KSAD 291751Z AUTO 00000KT 10SM CLR 27/M07 A3016 RMK AO2 SLP170
T02671067 10267 20067 50002





000
SAUS45 KTWC 291652
MTRSAD
METAR KSAD 291651Z AUTO VRB03KT 10SM CLR 23/M07 A3017 RMK AO2 SLP175
T02331067





000
SAUS45 KTWC 291652
MTRSAD
METAR KSAD 291651Z AUTO VRB03KT 10SM CLR 23/M07 A3017 RMK AO2 SLP175
T02331067





000
SAUS45 KTWC 291552
MTRSAD
METAR KSAD 291551Z AUTO 16004KT 10SM CLR 18/M04 A3017 RMK AO2 SLP179
T01831039





000
SAUS45 KTWC 291552
MTRSAD
METAR KSAD 291551Z AUTO 16004KT 10SM CLR 18/M04 A3017 RMK AO2 SLP179
T01831039





000
SAUS45 KTWC 291452
MTRSAD
METAR KSAD 291451Z AUTO 14004KT 10SM CLR 14/M06 A3015 RMK AO2 SLP178
T01391061 51015





000
SAUS45 KTWC 291452
MTRSAD
METAR KSAD 291451Z AUTO 14004KT 10SM CLR 14/M06 A3015 RMK AO2 SLP178
T01391061 51015





000
SAUS45 KTWC 291352
MTRSAD
METAR KSAD 291351Z AUTO 00000KT 10SM CLR 10/M07 A3014 RMK AO2 SLP175
T01001072





000
SAUS45 KTWC 291252
MTRSAD
METAR KSAD 291251Z AUTO 00000KT 10SM CLR 08/M07 A3012 RMK AO2 SLP164
T00831067





000
SAUS45 KTWC 291252
MTRSAD
METAR KSAD 291251Z AUTO 00000KT 10SM CLR 08/M07 A3012 RMK AO2 SLP164
T00831067





000
SAUS45 KTWC 291152
MTRSAD
METAR KSAD 291151Z AUTO 00000KT 10SM CLR 09/M08 A3010 RMK AO2 SLP155
T00891083 10189 20089 53002





000
SAUS45 KTWC 291152
MTRSAD
METAR KSAD 291151Z AUTO 00000KT 10SM CLR 09/M08 A3010 RMK AO2 SLP155
T00891083 10189 20089 53002





000
SAUS45 KTWC 291052
MTRSAD
METAR KSAD 291051Z AUTO 09003KT 10SM CLR 09/M08 A3010 RMK AO2 SLP151
T00941083





000
SAUS45 KTWC 290952
MTRSAD
METAR KSAD 290951Z AUTO 13003KT 10SM CLR 11/M08 A3009 RMK AO2 SLP149
T01111083





000
SAUS45 KTWC 290853
MTRSAD
METAR KSAD 290851Z AUTO 14004KT 10SM CLR 12/M09 A3010 RMK AO2 SLP150
T01221089 51002





000
SAUS45 KTWC 290853
MTRSAD
METAR KSAD 290851Z AUTO 14004KT 10SM CLR 12/M09 A3010 RMK AO2 SLP150
T01221089 51002





000
SAUS45 KTWC 290752
MTRSAD
METAR KSAD 290751Z AUTO 00000KT 10SM CLR 16/M10 A3010 RMK AO2 SLP147
T01561100





000
SAUS45 KTWC 290752
MTRSAD
METAR KSAD 290751Z AUTO 00000KT 10SM CLR 16/M10 A3010 RMK AO2 SLP147
T01561100





000
SAUS45 KTWC 290652
MTRSAD
METAR KSAD 290651Z AUTO 33006KT 10SM CLR 17/M11 A3009 RMK AO2 SLP148
T01721106 403280056





000
SAUS45 KTWC 290652
MTRSAD
METAR KSAD 290651Z AUTO 33006KT 10SM CLR 17/M11 A3009 RMK AO2 SLP148
T01721106 403280056





000
SAUS45 KTWC 290553
MTRSAD
METAR KSAD 290551Z AUTO 33007KT 10SM CLR 17/M10 A3009 RMK AO2 SLP151
T01721100 10317 20172 51009





000
SAUS45 KTWC 290553
MTRSAD
METAR KSAD 290551Z AUTO 33007KT 10SM CLR 17/M10 A3009 RMK AO2 SLP151
T01721100 10317 20172 51009





000
SAUS45 KTWC 290452
MTRSAD
METAR KSAD 290451Z AUTO 33009KT 10SM CLR 20/M11 A3008 RMK AO2 SLP148
T02001111





000
SAUS45 KTWC 290452
MTRSAD
METAR KSAD 290451Z AUTO 33009KT 10SM CLR 20/M11 A3008 RMK AO2 SLP148
T02001111





000
SAUS45 KTWC 290352
MTRSAD
METAR KSAD 290351Z AUTO 33010KT 10SM CLR 21/M11 A3007 RMK AO2 SLP146
T02111111





000
SAUS45 KTWC 290352
MTRSAD
METAR KSAD 290351Z AUTO 33010KT 10SM CLR 21/M11 A3007 RMK AO2 SLP146
T02111111





000
SAUS45 KTWC 290252
MTRSAD
METAR KSAD 290251Z AUTO 34008KT 10SM CLR 21/M12 A3006 RMK AO2 SLP148
T02061117 53013





000
SAUS45 KTWC 290152
MTRSAD
METAR KSAD 290151Z AUTO 31008KT 10SM CLR 26/M13 A3003 RMK AO2 SLP138
T02561133





000
SAUS45 KTWC 290152
MTRSAD
METAR KSAD 290151Z AUTO 31008KT 10SM CLR 26/M13 A3003 RMK AO2 SLP138
T02561133





000
SAUS45 KTWC 290052
MTRSAD
METAR KSAD 290051Z AUTO 31013G20KT 10SM CLR 30/M14 A3003 RMK AO2
SLP133 T03001139





000
SAUS45 KTWC 290052
MTRSAD
METAR KSAD 290051Z AUTO 31013G20KT 10SM CLR 30/M14 A3003 RMK AO2
SLP133 T03001139





    US Dept of Commerce
    National Oceanic and Atmospheric Administration
    National Weather Service
    1325 East West Highway
    Silver Spring, MD 20910
    Page Author: NWS Internet Services Team
Disclaimer
Information Quality
Credits
Glossary
Privacy Policy
Freedom of Information Act (FOIA)
About Us
Career Opportunities